Latest Weather Observations for Sydney Harbour

IDN60801

Issued at 2:04 am EST Sunday 6 September 2015 (issued every 30 minutes, with the page automatically refreshed every 10 minutes)

About weather observations | Map of weather stations | Latest weather observations for NSW | Other Formats
Station Details ID: 066196 Name: WEDDING CAKE WEST Lat: -33.84 Lon: 151.26 Height: 6.0 m
Data from the previous 72 hours. | See also: Recent months at Sydney Harbour
Date/Time
EST
Temp
°C
App
Temp
°C
Dew
Point
Rel
Hum
%
Delta-T
°C
Wind Press
QNH
hPa
Press
MSL
hPa
Rain
since 9 am
mm
Dir
 
Spd
km/h
Gust
km/h
Spd
kts
Gust
kts
06/02:00am 14.8 - - - - W 11 15 6 8 - - -
06/01:30am 15.0 - - - - W 13 17 7 9 - - -
06/01:00am 14.6 - - - - SW 7 9 4 5 - - -
06/12:30am 14.3 - - - - SW 7 9 4 5 - - -
06/12:00am 14.4 - - - - S 11 15 6 8 - - -
 
Date/Time
EST
Temp
°C
App
Temp
°C
Dew
Point
Rel
Hum
%
Delta-T
°C
Wind Press
QNH
hPa
Press
MSL
hPa
Rain
since 9 am
mm
Dir
 
Spd
km/h
Gust
km/h
Spd
kts
Gust
kts
05/11:30pm 15.1 - - - - SSW 20 26 11 14 - - -
05/11:00pm 16.2 - - - - SSE 11 17 6 9 - - -
05/10:30pm 16.1 - - - - SSE 13 19 7 10 - - -
05/10:00pm 16.4 - - - - SSE 13 17 7 9 - - -
05/09:30pm 16.7 - - - - SE 15 20 8 11 - - -
05/09:00pm 16.7 - - - - SE 15 20 8 11 - - -
05/08:30pm 16.7 - - - - SE 15 20 8 11 - - -
05/08:00pm 16.5 - - - - SE 19 22 10 12 - - -
05/07:30pm 16.4 - - - - SE 19 22 10 12 - - -
05/07:00pm 16.5 - - - - SSE 17 24 9 13 - - -
05/06:30pm 16.3 - - - - SSE 17 22 9 12 - - -
05/06:00pm 16.3 - - - - SSE 17 24 9 13 - - -
05/05:30pm 16.3 - - - - SE 22 26 12 14 - - -
05/05:00pm 16.3 - - - - SSE 24 30 13 16 - - -
05/04:30pm 16.5 - - - - SSE 20 28 11 15 - - -
05/04:00pm 16.7 - - - - SE 24 33 13 18 - - -
05/03:30pm 17.0 - - - - SSE 26 35 14 19 - - -
05/03:00pm 17.3 - - - - S 28 35 15 19 - - -
05/02:30pm 17.4 - - - - S 28 33 15 18 - - -
05/02:00pm 17.4 - - - - S 24 32 13 17 - - -
05/01:30pm 17.1 - - - - S 22 32 12 17 - - -
05/01:00pm 17.4 - - - - S 22 30 12 16 - - -
05/12:30pm 17.8 - - - - SE 19 24 10 13 - - -
05/12:00pm 18.4 - - - - SSE 13 19 7 10 - - -
05/11:30am 17.7 - - - - WSW 7 11 4 6 - - -
05/11:00am 17.2 - - - - WSW 13 19 7 10 - - -
05/10:30am 16.6 - - - - WSW 15 20 8 11 - - -
05/10:00am 15.7 - - - - WSW 20 24 11 13 - - -
05/09:30am 14.6 - - - - WSW 22 28 12 15 - - -
05/09:00am 14.0 - - - - WSW 20 26 11 14 - - -
05/08:30am 13.7 - - - - WSW 17 22 9 12 - - -
05/08:00am 13.3 - - - - W 13 20 7 11 - - -
05/07:30am 12.7 - - - - W 15 19 8 10 - - -
05/07:00am 12.3 - - - - W 7 11 4 6 - - -
05/06:30am 12.5 - - - - W 4 7 2 4 - - -
05/06:00am 12.6 - - - - W 6 9 3 5 - - -
05/05:30am 12.9 - - - - W 7 9 4 5 - - -
05/05:00am 12.9 - - - - W 11 13 6 7 - - -
05/04:30am 13.1 - - - - WNW 13 17 7 9 - - -
05/04:00am 13.2 - - - - W 13 17 7 9 - - -
05/03:30am 13.4 - - - - WNW 13 17 7 9 - - -
05/03:00am 13.9 - - - - WNW 11 13 6 7 - - -
05/02:30am 14.1 - - - - WSW 13 17 7 9 - - -
05/02:00am 14.5 - - - - SW 9 13 5 7 - - -
05/01:30am 14.7 - - - - CALM 0 0 0 0 - - -
05/01:00am 14.8 - - - - W 2 7 1 4 - - -
05/12:30am 14.9 - - - - W 7 11 4 6 - - -
05/12:00am 15.3 - - - - W 11 15 6 8 - - -
 
Date/Time
EST
Temp
°C
App
Temp
°C
Dew
Point
Rel
Hum
%
Delta-T
°C
Wind Press
QNH
hPa
Press
MSL
hPa
Rain
since 9 am
mm
Dir
 
Spd
km/h
Gust
km/h
Spd
kts
Gust
kts
04/11:30pm 15.5 - - - - WNW 11 17 6 9 - - -
04/11:00pm 15.5 - - - - SE 2 7 1 4 - - -
04/10:30pm 15.4 - - - - SE 6 7 3 4 - - -
04/10:00pm 15.8 - - - - CALM 0 0 0 0 - - -
04/09:30pm 16.1 - - - - SE 6 7 3 4 - - -
04/09:00pm 16.5 - - - - SE 9 11 5 6 - - -
04/08:30pm 16.4 - - - - SE 9 13 5 7 - - -
04/08:00pm 16.5 - - - - ESE 9 11 5 6 - - -
04/07:30pm 16.5 - - - - SE 11 13 6 7 - - -
04/07:00pm 16.1 - - - - CALM 0 0 0 0 - - -
04/06:30pm 16.3 - - - - SSE 7 9 4 5 - - -
04/06:00pm 16.2 - - - - SSE 11 15 6 8 - - -
04/05:30pm 16.4 - - - - SE 13 17 7 9 - - -
04/05:00pm 16.7 - - - - SSE 17 20 9 11 - - -
04/04:30pm 17.0 - - - - SSE 17 22 9 12 - - -
04/04:00pm 16.7 - - - - S 20 30 11 16 - - -
04/03:30pm 16.6 - - - - S 22 30 12 16 - - -
04/03:00pm 16.7 - - - - S 26 35 14 19 - - -
04/02:30pm 16.7 - - - - S 28 35 15 19 - - -
04/02:00pm 16.7 - - - - S 26 33 14 18 - - -
04/01:30pm 16.7 - - - - S 30 41 16 22 - - -
04/01:00pm 16.6 - - - - SSW 32 43 17 23 - - -
04/12:30pm 16.4 - - - - SSW 37 52 20 28 - - -
04/12:00pm 16.2 - - - - SSW 35 44 19 24 - - -
04/11:30am 16.2 - - - - SSW 35 44 19 24 - - -
04/11:00am 15.9 - - - - SSW 32 43 17 23 - - -
04/10:30am 15.5 - - - - SSW 32 39 17 21 - - -
04/10:00am 15.7 - - - - SW 35 43 19 23 - - -
04/09:30am 15.4 - - - - SW 30 37 16 20 - - -
04/09:00am 14.9 - - - - SW 26 35 14 19 - - -
04/08:30am 13.7 - - - - WSW 22 33 12 18 - - -
04/08:00am 13.4 - - - - SW 24 30 13 16 - - -
04/07:30am 13.6 - - - - WSW 28 35 15 19 - - -
04/07:00am 13.5 - - - - SW 28 35 15 19 - - -
04/06:30am 13.5 - - - - SW 28 39 15 21 - - -
04/06:00am 13.8 - - - - SW 33 43 18 23 - - -
04/05:30am 14.3 - - - - SW 35 41 19 22 - - -
04/05:00am 14.3 - - - - SW 37 46 20 25 - - -
04/04:30am 13.8 - - - - SW 28 41 15 22 - - -
04/04:00am 13.8 - - - - WSW 24 32 13 17 - - -
04/03:30am 14.2 - - - - SW 35 43 19 23 - - -
04/03:00am 14.2 - - - - SW 33 41 18 22 - - -
04/02:30am 14.6 - - - - WSW 28 35 15 19 - - -
04/02:00am 14.0 - - - - WSW 24 32 13 17 - - -
04/01:30am 13.7 - - - - W 26 32 14 17 - - -
04/01:00am 14.4 - - - - SSW 32 44 17 24 - - -
04/12:30am 15.0 - - - - SSW 26 39 14 21 - - -
04/12:00am 14.8 - - - - SW 28 33 15 18 - - -
 
Date/Time
EST
Temp
°C
App
Temp
°C
Dew
Point
Rel
Hum
%
Delta-T
°C
Wind Press
QNH
hPa
Press
MSL
hPa
Rain
since 9 am
mm
Dir
 
Spd
km/h
Gust
km/h
Spd
kts
Gust
kts
03/11:30pm 14.5 - - - - SW 33 43 18 23 - - -
03/11:00pm 15.1 - - - - WSW 35 44 19 24 - - -
03/10:30pm 15.0 - - - - WSW 39 48 21 26 - - -
03/10:00pm 14.6 - - - - WSW 37 54 20 29 - - -
03/09:30pm 15.4 - - - - WSW 37 48 20 26 - - -
03/09:01pm 15.5 - - - - SW 37 56 20 30 - - -
03/09:00pm 15.5 - - - - SW 37 48 20 26 - - -
03/08:30pm 16.1 - - - - WSW 37 48 20 26 - - -
03/08:00pm 16.4 - - - - WSW 35 50 19 27 - - -
03/07:50pm 16.5 - - - - WSW 33 56 18 30 - - -
03/07:30pm 16.5 - - - - WSW 30 41 16 22 - - -
03/07:00pm 16.6 - - - - WSW 32 48 17 26 - - -
03/06:30pm 16.7 - - - - SW 41 57 22 31 - - -
03/06:00pm 17.4 - - - - SW 41 50 22 27 - - -
03/05:30pm 17.7 - - - - SW 37 46 20 25 - - -
03/05:08pm 17.8 - - - - WSW 37 56 20 30 - - -
03/05:00pm 18.0 - - - - SW 39 50 21 27 - - -
03/04:30pm 18.3 - - - - SW 44 54 24 29 - - -
03/04:16pm 18.7 - - - - SW 35 54 19 29 - - -
03/04:00pm 19.0 - - - - SW 39 50 21 27 - - -
03/03:49pm 19.1 - - - - WSW 28 46 15 25 - - -
03/03:30pm 19.0 - - - - WSW 32 41 17 22 - - -
03/03:00pm 18.9 - - - - WSW 33 46 18 25 - - -
03/02:49pm 18.8 - - - - SW 32 52 17 28 - - -
03/02:30pm 18.8 - - - - WSW 32 48 17 26 - - -
03/02:24pm 18.7 - - - - WSW 30 48 16 26 - - -
03/02:00pm 18.4 - - - - WSW 26 39 14 21 - - -
03/01:47pm 18.1 - - - - W 28 46 15 25 - - -
03/01:30pm 18.0 - - - - WSW 35 46 19 25 - - -
03/01:00pm 17.5 - - - - W 26 35 14 19 - - -
03/12:30pm 17.4 - - - - W 24 37 13 20 - - -
03/12:00pm 17.2 - - - - W 24 33 13 18 - - -
03/11:30am 16.9 - - - - W 24 35 13 19 - - -
03/11:00am 15.9 - - - - WNW 22 33 12 18 - - -
03/10:30am 15.6 - - - - W 22 30 12 16 - - -
03/10:00am 15.0 - - - - W 24 30 13 16 - - -
03/09:30am 14.3 - - - - W 22 28 12 15 - - -
03/09:00am 13.8 - - - - W 26 33 14 18 - - -
03/08:30am 13.1 - - - - W 28 33 15 18 - - -
03/08:00am 12.8 - - - - W 22 28 12 15 - - -
03/07:30am 12.6 - - - - WNW 19 24 10 13 - - -
03/07:00am 12.0 - - - - W 13 17 7 9 - - -
03/06:30am 12.5 - - - - W 15 19 8 10 - - -
03/06:00am 12.7 - - - - WSW 9 13 5 7 - - -
03/05:30am 13.2 - - - - N 15 19 8 10 - - -
03/05:00am 13.5 - - - - NNW 13 20 7 11 - - -
03/04:30am 14.0 - - - - N 17 22 9 12 - - -
03/04:00am 13.9 - - - - N 17 20 9 11 - - -
03/03:30am 14.0 - - - - N 13 20 7 11 - - -
03/03:00am 14.0 - - - - NNW 11 15 6 8 - - -
03/02:30am 14.1 - - - - NE 4 9 2 5 - - -

Other Formats:

Comma delimited format used in spreadsheet applications
http://www.bom.gov.au/fwo/IDN60801/IDN60801.95766.axf

JavaScript Object Notation format (JSON) in row-major order
http://www.bom.gov.au/fwo/IDN60801/IDN60801.95766.json